Bordeaux, France

9:10 PM CEST on August 27, 2014 (GMT +0200)
Merignac | Change Station
CLOSE
Current Station
Airport
Location: Bordeaux,
Elevation: 177 ft
Nearby Weather Stations

Elev 177 ft 44.83 °N, 0.69 °W | Updated 10 minutes ago

Clear
Clear
73 °F
Feels Like 73 °F
N
4
Wind Variable Wind from Variable

Today
High -- | Low -- °F
--% Chance of Precip.
Yesterday
High -- | Low -- °F
Precip. -- in
7:18 AM 8:49 PM
Waxing Crescent, 4% visible
Pressure 30.01 in
Visibility 6.2 miles
Clouds
Dew Point 64 °F
Humidity 73%
Rainfall 0.00 in
Snow Depth Not available.
UV Not available.
Pollen Not available.
Air Quality Not available.
Flu Activity Not available.
METAR LFBD 271900Z AUTO VRB03KT 9999 NSC 23/18 Q1016

More Conditions Fewer Conditions

Pressure 30.01 in
Visibility 6.2 miles
Clouds
Dew Point 64 °F
Humidity 73%
Rainfall 0.00 in
Snow Depth Not available.
UV Not available.
Pollen Not available.
Air Quality Not available.
Flu Activity Not available.
METAR LFBD 271900Z AUTO VRB03KT 9999 NSC 23/18 Q1016

More Conditions Fewer Conditions

10-Day Weather Forecast

Almanac

Astronomy

Aug. 27, 2014 Rise Set
Actual Time 7:18 AM CEST 8:49 PM CEST
Civil Twilight 6:48 AM CEST 9:19 PM CEST
Nautical Twilight 6:11 AM CEST 9:56 PM CEST
Astronomical Twilight 5:31 AM CEST 10:36 PM CEST
Moon 9:07 AM CEST 9:26 PM CEST
Length of Visible Light 14h 31m
Length of Day
13h 30m
Tomorrow will be 2m 57s shorter.
Waxing Crescent, 4% of the Moon is Illuminated
Today
Waxing Crescent
Sep 2
First Quarter
Sep 8
Full
Sep 15
Last Quarter
Sep 24
New

Today's Extremes

Country Highs Country Lows

Community

WunderPhotos

Upload Photos

1,747,759 photos uploaded!

Nearby

Snow Depth

Not available.

Earthquake Activity

City Distance Mag. Time & Date
No recent earthquake activity has been reported nearby.
Minimum magnitude displayed is 2.5.

Coastal Water Temperatures

Place Temperature
No Stations Reporting

Nearby Weather Stations